Aeroporto :
LOGIN :

Iscrizione | Disclaimer

   EN    FR    IT 

 










Sommario :    VFR   VFR Marginale   IFR   IFR Intensivo   IFR Molto Intensivo
Visibilità : 
Base nubi : 
>= 8 km
>= 3000ft
5 / 8 km
1000 / 3000 ft
1500m / 5 km
500 / 1000 ft
800 / 1500m
200 / 500 ft
< 800m
< 200 ft
Simboli :   Temporali  Nebbia  Neve Forte  Precipitazioni Forti  Vento > 20 kt
SIGMETs :   Varie  Temporali  Ghiacco  Turbolenza  Onda orograficha  Ceneri Vulcaniche






- Altitudine del aeroporto : -11 ft
- Codice IATA : AMS


EHAM - Amsterdam Schiphol

ULTIMO METAR :
  • 070355Z 24013KT 210V280 9999 -SHRA FEW015 SCT018CB BKN042 11/08 Q1000 NOSIG

METARs OBSOLETI :
  • 070325Z 25012KT 9999 -SHRA FEW013 SCT018CB BKN045 10/08 Q0999 TEMPO 7000
  • 070255Z 26015KT 230V290 9000 -SHRA FEW017 SCT020CB BKN045 11/07 Q0999 TEMPO 7000
  • 070225Z 25012KT 210V270 9999 -SHRA SCT018TCU 11/08 Q0999 TEMPO 7000
  • 070155Z 24010KT 210V270 9999 FEW018TCU SCT025 11/08 Q0999 TEMPO 7000
  • 070125Z 23011KT 200V270 9999 -SHRA SCT018CB BKN048 11/09 Q0999 RESHRA TEMPO 7000

TAF COR TAF EHAM
Valido dal 07 a 00 ore il 08 a 06 ore UTC


062247Z 0700/0806 23012KT 9999 SCT025
TEMPO 0700/0710 6000 SHRA SCT018CB BKN025
PROB30
TEMPO 0700/0708 29018G28KT 4000 TSRA BKN014 SCT018CB
BECMG 0704/0707 28015KT
BECMG 0717/0720 24005KT
PROB30
TEMPO 0717/0724 7000 -SHRA BKN012 SCT015TCU



MetMap, La meteo Aeronautica in un colpo d'occhio ! - Copyright ORBIFLY Dicembre 2007 - Disclaimer

ORBIFLY MET'MAP TEAM :

Programmazione e sviluppo : Alexandra Zaïnal
Concezione : Baudouin d'Aumeries
Aiuto per la programmazione : Marc-Olivier Méhu
Supporto tecnico e logistico : Manuel Goepfert
Aiuto per la traduzione : Arnaldo La Scala

Contatto : metmap@orbifly.com




FONTI E CREDITI :

   NOAA